sensor_id;sensor_type;location;lat;lon;timestamp;P1;durP1;ratioP1;P2;durP2;ratioP2
20397;SDS011;10358;49.590;11.030;2022-09-30T00:01:29;6.77;;;3.13;;
20397;SDS011;10358;49.590;11.030;2022-09-30T00:03:55;9.43;;;3.60;;
20397;SDS011;10358;49.590;11.030;2022-09-30T00:06:21;7.00;;;3.53;;
20397;SDS011;10358;49.590;11.030;2022-09-30T00:08:48;6.73;;;3.40;;
20397;SDS011;10358;49.590;11.030;2022-09-30T00:11:18;9.10;;;3.40;;
20397;SDS011;10358;49.590;11.030;2022-09-30T00:13:46;6.67;;;3.30;;
20397;SDS011;10358;49.590;11.030;2022-09-30T00:16:14;5.93;;;3.40;;
20397;SDS011;10358;49.590;11.030;2022-09-30T00:18:41;7.97;;;3.00;;
20397;SDS011;10358;49.590;11.030;2022-09-30T00:21:07;12.70;;;3.07;;
20397;SDS011;10358;49.590;11.030;2022-09-30T00:23:34;6.97;;;2.97;;
20397;SDS011;10358;49.590;11.030;2022-09-30T00:26:03;7.73;;;3.57;;
20397;SDS011;10358;49.590;11.030;2022-09-30T00:28:33;12.93;;;3.40;;
20397;SDS011;10358;49.590;11.030;2022-09-30T00:30:59;7.90;;;3.27;;
20397;SDS011;10358;49.590;11.030;2022-09-30T00:33:27;10.20;;;3.13;;
20397;SDS011;10358;49.590;11.030;2022-09-30T00:35:53;8.97;;;3.90;;
20397;SDS011;10358;49.590;11.030;2022-09-30T00:38:18;7.70;;;3.50;;
20397;SDS011;10358;49.590;11.030;2022-09-30T00:40:44;7.60;;;3.67;;
20397;SDS011;10358;49.590;11.030;2022-09-30T00:43:14;12.37;;;3.70;;
20397;SDS011;10358;49.590;11.030;2022-09-30T00:45:50;14.40;;;3.80;;
20397;SDS011;10358;49.590;11.030;2022-09-30T00:48:20;8.43;;;3.90;;
20397;SDS011;10358;49.590;11.030;2022-09-30T00:50:54;9.40;;;3.43;;
20397;SDS011;10358;49.590;11.030;2022-09-30T00:53:22;8.67;;;3.80;;
20397;SDS011;10358;49.590;11.030;2022-09-30T00:58:25;7.77;;;3.50;;
20397;SDS011;10358;49.590;11.030;2022-09-30T01:00:53;6.03;;;3.07;;
20397;SDS011;10358;49.590;11.030;2022-09-30T01:03:19;5.10;;;2.80;;
20397;SDS011;10358;49.590;11.030;2022-09-30T01:05:46;8.50;;;3.00;;
20397;SDS011;10358;49.590;11.030;2022-09-30T01:08:13;6.13;;;2.70;;
20397;SDS011;10358;49.590;11.030;2022-09-30T01:10:42;7.90;;;3.13;;
20397;SDS011;10358;49.590;11.030;2022-09-30T01:13:08;8.13;;;3.40;;
20397;SDS011;10358;49.590;11.030;2022-09-30T01:15:37;7.13;;;3.10;;
20397;SDS011;10358;49.590;11.030;2022-09-30T01:18:25;7.43;;;3.23;;
20397;SDS011;10358;49.590;11.030;2022-09-30T01:21:04;4.07;;;2.83;;
20397;SDS011;10358;49.590;11.030;2022-09-30T01:27:11;8.23;;;4.10;;
20397;SDS011;10358;49.590;11.030;2022-09-30T01:29:25;10.17;;;4.70;;
20397;SDS011;10358;49.590;11.030;2022-09-30T01:34:53;6.27;;;3.70;;
20397;SDS011;10358;49.590;11.030;2022-09-30T01:40:34;6.43;;;3.73;;
20397;SDS011;10358;49.590;11.030;2022-09-30T01:43:07;4.47;;;3.13;;
20397;SDS011;10358;49.590;11.030;2022-09-30T01:45:45;5.17;;;3.17;;
20397;SDS011;10358;49.590;11.030;2022-09-30T01:48:40;8.73;;;3.30;;
20397;SDS011;10358;49.590;11.030;2022-09-30T01:51:12;5.67;;;3.47;;
20397;SDS011;10358;49.590;11.030;2022-09-30T01:53:50;9.47;;;3.53;;
20397;SDS011;10358;49.590;11.030;2022-09-30T01:56:42;10.53;;;3.43;;
20397;SDS011;10358;49.590;11.030;2022-09-30T01:59:14;15.90;;;3.40;;
20397;SDS011;10358;49.590;11.030;2022-09-30T02:01:50;9.30;;;3.63;;
20397;SDS011;10358;49.590;11.030;2022-09-30T02:04:38;11.07;;;3.73;;
20397;SDS011;10358;49.590;11.030;2022-09-30T02:07:12;14.40;;;4.30;;
20397;SDS011;10358;49.590;11.030;2022-09-30T02:09:47;10.27;;;4.43;;
20397;SDS011;10358;49.590;11.030;2022-09-30T02:12:18;11.67;;;5.60;;
20397;SDS011;10358;49.590;11.030;2022-09-30T02:14:49;14.07;;;5.30;;
20397;SDS011;10358;49.590;11.030;2022-09-30T02:17:38;12.33;;;4.80;;
20397;SDS011;10358;49.590;11.030;2022-09-30T02:20:32;7.80;;;4.70;;
20397;SDS011;10358;49.590;11.030;2022-09-30T02:23:03;11.70;;;4.70;;
20397;SDS011;10358;49.590;11.030;2022-09-30T02:25:41;18.63;;;5.03;;
20397;SDS011;10358;49.590;11.030;2022-09-30T02:28:12;8.63;;;5.43;;
20397;SDS011;10358;49.590;11.030;2022-09-30T02:30:43;7.90;;;4.97;;
20397;SDS011;10358;49.590;11.030;2022-09-30T02:33:12;9.43;;;5.40;;
20397;SDS011;10358;49.590;11.030;2022-09-30T02:35:47;11.70;;;5.00;;
20397;SDS011;10358;49.590;11.030;2022-09-30T02:38:23;7.03;;;4.37;;
20397;SDS011;10358;49.590;11.030;2022-09-30T02:40:56;17.57;;;4.90;;
20397;SDS011;10358;49.590;11.030;2022-09-30T02:43:26;10.13;;;4.77;;
20397;SDS011;10358;49.590;11.030;2022-09-30T02:48:37;13.77;;;8.13;;
20397;SDS011;10358;49.590;11.030;2022-09-30T02:53:42;14.13;;;6.77;;
20397;SDS011;10358;49.590;11.030;2022-09-30T02:59:35;12.10;;;6.27;;
20397;SDS011;10358;49.590;11.030;2022-09-30T03:02:01;13.85;;;7.15;;
20397;SDS011;10358;49.590;11.030;2022-09-30T03:04:28;33.20;;;7.07;;
20397;SDS011;10358;49.590;11.030;2022-09-30T03:06:57;12.07;;;6.03;;
20397;SDS011;10358;49.590;11.030;2022-09-30T03:09:26;17.63;;;6.47;;
20397;SDS011;10358;49.590;11.030;2022-09-30T03:11:54;17.97;;;6.60;;
20397;SDS011;10358;49.590;11.030;2022-09-30T03:14:39;16.90;;;7.17;;
20397;SDS011;10358;49.590;11.030;2022-09-30T03:17:36;18.70;;;6.97;;
20397;SDS011;10358;49.590;11.030;2022-09-30T03:28:25;19.83;;;7.30;;
20397;SDS011;10358;49.590;11.030;2022-09-30T03:31:19;13.97;;;7.03;;
20397;SDS011;10358;49.590;11.030;2022-09-30T03:39:20;12.60;;;6.00;;
20397;SDS011;10358;49.590;11.030;2022-09-30T03:41:55;28.03;;;6.67;;
20397;SDS011;10358;49.590;11.030;2022-09-30T03:44:34;14.83;;;6.13;;
20397;SDS011;10358;49.590;11.030;2022-09-30T03:47:04;40.80;;;6.77;;
20397;SDS011;10358;49.590;11.030;2022-09-30T03:49:34;12.73;;;6.23;;
20397;SDS011;10358;49.590;11.030;2022-09-30T03:52:04;16.20;;;7.27;;
20397;SDS011;10358;49.590;11.030;2022-09-30T03:54:31;48.90;;;7.70;;
20397;SDS011;10358;49.590;11.030;2022-09-30T03:56:57;36.40;;;7.37;;
20397;SDS011;10358;49.590;11.030;2022-09-30T03:59:27;25.83;;;7.30;;
20397;SDS011;10358;49.590;11.030;2022-09-30T04:01:53;24.60;;;7.13;;
20397;SDS011;10358;49.590;11.030;2022-09-30T04:04:20;21.70;;;7.10;;
20397;SDS011;10358;49.590;11.030;2022-09-30T04:06:46;39.30;;;7.67;;
20397;SDS011;10358;49.590;11.030;2022-09-30T04:09:12;15.37;;;7.00;;
20397;SDS011;10358;49.590;11.030;2022-09-30T04:11:38;42.43;;;7.53;;
20397;SDS011;10358;49.590;11.030;2022-09-30T04:14:03;28.63;;;7.23;;
20397;SDS011;10358;49.590;11.030;2022-09-30T04:16:30;17.13;;;6.57;;
20397;SDS011;10358;49.590;11.030;2022-09-30T04:18:56;44.80;;;7.13;;
20397;SDS011;10358;49.590;11.030;2022-09-30T04:21:22;18.20;;;6.13;;
20397;SDS011;10358;49.590;11.030;2022-09-30T04:23:49;15.57;;;5.70;;
20397;SDS011;10358;49.590;11.030;2022-09-30T04:26:16;8.80;;;5.50;;
20397;SDS011;10358;49.590;11.030;2022-09-30T04:28:44;7.90;;;5.80;;
20397;SDS011;10358;49.590;11.030;2022-09-30T04:31:10;55.80;;;6.50;;
20397;SDS011;10358;49.590;11.030;2022-09-30T04:33:37;12.23;;;5.50;;
20397;SDS011;10358;49.590;11.030;2022-09-30T04:36:03;7.60;;;5.40;;
20397;SDS011;10358;49.590;11.030;2022-09-30T04:38:29;18.70;;;5.53;;
20397;SDS011;10358;49.590;11.030;2022-09-30T04:40:55;8.53;;;5.83;;
20397;SDS011;10358;49.590;11.030;2022-09-30T04:43:22;9.50;;;5.97;;
20397;SDS011;10358;49.590;11.030;2022-09-30T04:45:48;15.70;;;5.30;;
20397;SDS011;10358;49.590;11.030;2022-09-30T04:48:16;10.83;;;5.90;;
20397;SDS011;10358;49.590;11.030;2022-09-30T04:50:42;12.67;;;5.80;;
20397;SDS011;10358;49.590;11.030;2022-09-30T04:53:08;8.13;;;5.77;;
20397;SDS011;10358;49.590;11.030;2022-09-30T04:55:36;19.00;;;6.00;;
20397;SDS011;10358;49.590;11.030;2022-09-30T04:58:01;23.83;;;6.13;;
20397;SDS011;10358;49.590;11.030;2022-09-30T05:00:27;35.73;;;6.10;;
20397;SDS011;10358;49.590;11.030;2022-09-30T05:02:52;8.37;;;5.80;;
20397;SDS011;10358;49.590;11.030;2022-09-30T05:05:18;14.50;;;5.53;;
20397;SDS011;10358;49.590;11.030;2022-09-30T05:07:44;9.00;;;6.00;;
20397;SDS011;10358;49.590;11.030;2022-09-30T05:10:10;23.00;;;6.07;;
20397;SDS011;10358;49.590;11.030;2022-09-30T05:12:36;16.13;;;6.10;;
20397;SDS011;10358;49.590;11.030;2022-09-30T05:15:03;9.40;;;5.37;;
20397;SDS011;10358;49.590;11.030;2022-09-30T05:17:30;36.60;;;5.77;;
20397;SDS011;10358;49.590;11.030;2022-09-30T05:19:55;26.53;;;5.40;;
20397;SDS011;10358;49.590;11.030;2022-09-30T05:22:21;17.20;;;5.53;;
20397;SDS011;10358;49.590;11.030;2022-09-30T05:24:49;33.10;;;6.43;;
20397;SDS011;10358;49.590;11.030;2022-09-30T05:27:15;17.97;;;5.37;;
20397;SDS011;10358;49.590;11.030;2022-09-30T05:29:42;7.93;;;5.60;;
20397;SDS011;10358;49.590;11.030;2022-09-30T05:32:07;14.37;;;5.43;;
20397;SDS011;10358;49.590;11.030;2022-09-30T05:34:33;7.47;;;5.13;;
20397;SDS011;10358;49.590;11.030;2022-09-30T05:36:58;8.27;;;5.40;;
20397;SDS011;10358;49.590;11.030;2022-09-30T05:39:24;9.77;;;5.40;;
20397;SDS011;10358;49.590;11.030;2022-09-30T05:41:50;16.67;;;5.13;;
20397;SDS011;10358;49.590;11.030;2022-09-30T05:44:15;33.50;;;5.33;;
20397;SDS011;10358;49.590;11.030;2022-09-30T05:46:41;19.73;;;5.33;;
20397;SDS011;10358;49.590;11.030;2022-09-30T05:49:07;8.80;;;5.33;;
20397;SDS011;10358;49.590;11.030;2022-09-30T05:51:34;12.97;;;5.33;;
20397;SDS011;10358;49.590;11.030;2022-09-30T05:54:00;7.03;;;5.27;;
20397;SDS011;10358;49.590;11.030;2022-09-30T05:56:26;6.33;;;4.70;;
20397;SDS011;10358;49.590;11.030;2022-09-30T05:58:51;8.87;;;4.87;;
20397;SDS011;10358;49.590;11.030;2022-09-30T06:01:17;8.77;;;4.87;;
20397;SDS011;10358;49.590;11.030;2022-09-30T06:03:43;25.10;;;5.20;;
20397;SDS011;10358;49.590;11.030;2022-09-30T06:06:10;6.77;;;4.80;;
20397;SDS011;10358;49.590;11.030;2022-09-30T06:08:35;12.07;;;5.10;;
20397;SDS011;10358;49.590;11.030;2022-09-30T06:11:06;17.83;;;4.70;;
20397;SDS011;10358;49.590;11.030;2022-09-30T06:13:35;12.77;;;5.30;;
20397;SDS011;10358;49.590;11.030;2022-09-30T06:16:01;8.87;;;4.63;;
20397;SDS011;10358;49.590;11.030;2022-09-30T06:18:27;56.37;;;6.07;;
20397;SDS011;10358;49.590;11.030;2022-09-30T06:20:55;8.80;;;4.73;;
20397;SDS011;10358;49.590;11.030;2022-09-30T06:23:22;31.20;;;6.07;;
20397;SDS011;10358;49.590;11.030;2022-09-30T06:25:51;17.07;;;4.77;;
20397;SDS011;10358;49.590;11.030;2022-09-30T06:28:18;6.27;;;4.67;;
20397;SDS011;10358;49.590;11.030;2022-09-30T06:30:44;6.10;;;4.50;;
20397;SDS011;10358;49.590;11.030;2022-09-30T06:33:10;17.37;;;4.90;;
20397;SDS011;10358;49.590;11.030;2022-09-30T06:35:36;13.43;;;5.10;;
20397;SDS011;10358;49.590;11.030;2022-09-30T06:38:02;34.33;;;4.93;;
20397;SDS011;10358;49.590;11.030;2022-09-30T06:40:28;13.60;;;4.70;;
20397;SDS011;10358;49.590;11.030;2022-09-30T06:42:57;15.20;;;4.40;;
20397;SDS011;10358;49.590;11.030;2022-09-30T06:45:23;12.50;;;4.77;;
20397;SDS011;10358;49.590;11.030;2022-09-30T06:47:49;6.30;;;4.60;;
20397;SDS011;10358;49.590;11.030;2022-09-30T06:50:15;6.10;;;4.57;;
20397;SDS011;10358;49.590;11.030;2022-09-30T06:52:42;5.37;;;4.20;;
20397;SDS011;10358;49.590;11.030;2022-09-30T06:55:07;6.70;;;4.00;;
20397;SDS011;10358;49.590;11.030;2022-09-30T06:57:33;4.57;;;3.37;;
20397;SDS011;10358;49.590;11.030;2022-09-30T07:00:00;10.87;;;3.93;;
20397;SDS011;10358;49.590;11.030;2022-09-30T07:02:26;5.43;;;3.90;;
20397;SDS011;10358;49.590;11.030;2022-09-30T07:04:53;22.07;;;4.13;;
20397;SDS011;10358;49.590;11.030;2022-09-30T07:07:18;8.37;;;4.20;;
20397;SDS011;10358;49.590;11.030;2022-09-30T07:09:45;6.70;;;4.50;;
20397;SDS011;10358;49.590;11.030;2022-09-30T07:12:11;5.23;;;3.80;;
20397;SDS011;10358;49.590;11.030;2022-09-30T07:14:37;5.33;;;3.70;;
20397;SDS011;10358;49.590;11.030;2022-09-30T07:17:03;6.17;;;4.37;;
20397;SDS011;10358;49.590;11.030;2022-09-30T07:19:30;5.57;;;3.73;;
20397;SDS011;10358;49.590;11.030;2022-09-30T07:21:58;6.10;;;3.77;;
20397;SDS011;10358;49.590;11.030;2022-09-30T07:24:42;8.23;;;3.70;;
20397;SDS011;10358;49.590;11.030;2022-09-30T07:27:08;4.93;;;3.67;;
20397;SDS011;10358;49.590;11.030;2022-09-30T07:29:33;5.70;;;3.97;;
20397;SDS011;10358;49.590;11.030;2022-09-30T07:31:59;5.93;;;3.90;;
20397;SDS011;10358;49.590;11.030;2022-09-30T07:34:25;10.17;;;3.83;;
20397;SDS011;10358;49.590;11.030;2022-09-30T07:36:50;5.27;;;3.63;;
20397;SDS011;10358;49.590;11.030;2022-09-30T07:39:16;5.17;;;3.40;;
20397;SDS011;10358;49.590;11.030;2022-09-30T07:41:41;9.80;;;3.63;;
20397;SDS011;10358;49.590;11.030;2022-09-30T07:44:09;4.57;;;3.80;;
20397;SDS011;10358;49.590;11.030;2022-09-30T07:46:38;5.33;;;3.60;;
20397;SDS011;10358;49.590;11.030;2022-09-30T07:49:05;4.80;;;3.60;;
20397;SDS011;10358;49.590;11.030;2022-09-30T07:51:34;6.37;;;4.27;;
20397;SDS011;10358;49.590;11.030;2022-09-30T07:54:03;4.80;;;3.60;;
20397;SDS011;10358;49.590;11.030;2022-09-30T07:56:30;5.50;;;3.87;;
20397;SDS011;10358;49.590;11.030;2022-09-30T07:58:57;5.63;;;4.10;;
20397;SDS011;10358;49.590;11.030;2022-09-30T08:01:24;4.83;;;3.47;;
20397;SDS011;10358;49.590;11.030;2022-09-30T08:03:52;3.60;;;3.07;;
20397;SDS011;10358;49.590;11.030;2022-09-30T08:06:19;5.47;;;3.60;;
20397;SDS011;10358;49.590;11.030;2022-09-30T08:08:46;7.50;;;4.50;;
20397;SDS011;10358;49.590;11.030;2022-09-30T08:11:14;6.67;;;4.03;;
20397;SDS011;10358;49.590;11.030;2022-09-30T08:13:40;5.20;;;4.00;;
20397;SDS011;10358;49.590;11.030;2022-09-30T08:16:06;4.90;;;3.90;;
20397;SDS011;10358;49.590;11.030;2022-09-30T08:18:32;4.90;;;3.80;;
20397;SDS011;10358;49.590;11.030;2022-09-30T08:21:04;4.00;;;3.30;;
20397;SDS011;10358;49.590;11.030;2022-09-30T08:23:31;4.43;;;3.70;;
20397;SDS011;10358;49.590;11.030;2022-09-30T08:26:07;4.97;;;3.63;;
20397;SDS011;10358;49.590;11.030;2022-09-30T08:28:37;4.43;;;3.83;;
20397;SDS011;10358;49.590;11.030;2022-09-30T08:33:34;4.97;;;3.87;;
20397;SDS011;10358;49.590;11.030;2022-09-30T08:36:01;5.20;;;3.80;;
20397;SDS011;10358;49.590;11.030;2022-09-30T08:38:30;5.13;;;3.70;;
20397;SDS011;10358;49.590;11.030;2022-09-30T08:43:53;6.33;;;3.90;;
20397;SDS011;10358;49.590;11.030;2022-09-30T08:46:32;7.90;;;4.27;;
20397;SDS011;10358;49.590;11.030;2022-09-30T08:49:12;5.70;;;4.20;;
20397;SDS011;10358;49.590;11.030;2022-09-30T08:52:00;5.03;;;4.00;;
20397;SDS011;10358;49.590;11.030;2022-09-30T08:54:30;5.50;;;4.40;;
20397;SDS011;10358;49.590;11.030;2022-09-30T08:56:59;5.53;;;4.20;;
20397;SDS011;10358;49.590;11.030;2022-09-30T08:59:31;6.13;;;4.27;;
20397;SDS011;10358;49.590;11.030;2022-09-30T09:02:31;6.63;;;4.83;;
20397;SDS011;10358;49.590;11.030;2022-09-30T09:04:58;7.60;;;5.00;;
20397;SDS011;10358;49.590;11.030;2022-09-30T09:16:01;8.27;;;4.70;;
20397;SDS011;10358;49.590;11.030;2022-09-30T09:23:50;5.50;;;4.43;;
20397;SDS011;10358;49.590;11.030;2022-09-30T09:26:18;6.00;;;4.40;;
20397;SDS011;10358;49.590;11.030;2022-09-30T09:29:07;5.47;;;4.70;;
20397;SDS011;10358;49.590;11.030;2022-09-30T09:31:35;6.47;;;4.90;;
20397;SDS011;10358;49.590;11.030;2022-09-30T09:34:11;11.23;;;5.30;;
20397;SDS011;10358;49.590;11.030;2022-09-30T09:40:05;7.97;;;5.90;;
20397;SDS011;10358;49.590;11.030;2022-09-30T09:48:15;9.27;;;6.77;;
20397;SDS011;10358;49.590;11.030;2022-09-30T09:50:45;10.33;;;7.53;;
20397;SDS011;10358;49.590;11.030;2022-09-30T09:53:28;9.67;;;6.93;;
20397;SDS011;10358;49.590;11.030;2022-09-30T09:56:16;11.60;;;7.60;;
20397;SDS011;10358;49.590;11.030;2022-09-30T10:04:49;9.67;;;7.50;;
20397;SDS011;10358;49.590;11.030;2022-09-30T10:07:23;13.43;;;7.33;;
20397;SDS011;10358;49.590;11.030;2022-09-30T10:09:50;11.50;;;7.57;;
20397;SDS011;10358;49.590;11.030;2022-09-30T10:12:42;10.27;;;7.30;;
20397;SDS011;10358;49.590;11.030;2022-09-30T10:15:20;9.87;;;6.73;;
20397;SDS011;10358;49.590;11.030;2022-09-30T10:17:54;10.83;;;6.93;;
20397;SDS011;10358;49.590;11.030;2022-09-30T10:23:07;9.60;;;7.00;;
20397;SDS011;10358;49.590;11.030;2022-09-30T10:25:52;12.93;;;8.27;;
20397;SDS011;10358;49.590;11.030;2022-09-30T10:28:26;12.50;;;7.00;;
20397;SDS011;10358;49.590;11.030;2022-09-30T10:36:35;12.27;;;7.03;;
20397;SDS011;10358;49.590;11.030;2022-09-30T10:39:07;14.07;;;7.10;;
20397;SDS011;10358;49.590;11.030;2022-09-30T10:41:43;13.07;;;6.47;;
20397;SDS011;10358;49.590;11.030;2022-09-30T10:44:15;11.17;;;7.10;;
20397;SDS011;10358;49.590;11.030;2022-09-30T10:46:46;12.63;;;6.10;;
20397;SDS011;10358;49.590;11.030;2022-09-30T10:49:20;11.07;;;6.07;;
20397;SDS011;10358;49.590;11.030;2022-09-30T10:52:18;10.40;;;5.80;;
20397;SDS011;10358;49.590;11.030;2022-09-30T10:54:49;6.97;;;5.13;;
20397;SDS011;10358;49.590;11.030;2022-09-30T11:00:11;6.43;;;4.70;;
20397;SDS011;10358;49.590;11.030;2022-09-30T11:06:01;7.63;;;5.53;;
20397;SDS011;10358;49.590;11.030;2022-09-30T11:08:25;7.33;;;5.33;;
20397;SDS011;10358;49.590;11.030;2022-09-30T11:14:47;8.53;;;6.10;;
20397;SDS011;10358;49.590;11.030;2022-09-30T11:24:52;9.83;;;6.40;;
20397;SDS011;10358;49.590;11.030;2022-09-30T11:41:19;6.87;;;5.00;;
20397;SDS011;10358;49.590;11.030;2022-09-30T11:58:22;5.70;;;4.30;;
20397;SDS011;10358;49.590;11.030;2022-09-30T12:00:46;5.90;;;4.53;;
20397;SDS011;10358;49.590;11.030;2022-09-30T12:03:26;9.93;;;4.90;;
20397;SDS011;10358;49.590;11.030;2022-09-30T12:06:00;5.33;;;4.17;;
20397;SDS011;10358;49.590;11.030;2022-09-30T12:08:35;6.18;;;4.10;;
20397;SDS011;10358;49.590;11.030;2022-09-30T12:11:09;6.47;;;3.80;;
20397;SDS011;10358;49.590;11.030;2022-09-30T12:13:54;6.32;;;3.95;;
20397;SDS011;10358;49.590;11.030;2022-09-30T12:16:23;5.50;;;3.30;;
20397;SDS011;10358;49.590;11.030;2022-09-30T12:18:58;5.67;;;3.23;;
20397;SDS011;10358;49.590;11.030;2022-09-30T12:21:43;8.77;;;3.35;;
20397;SDS011;10358;49.590;11.030;2022-09-30T12:27:00;5.97;;;3.35;;
20397;SDS011;10358;49.590;11.030;2022-09-30T12:29:37;5.57;;;3.50;;
20397;SDS011;10358;49.590;11.030;2022-09-30T12:32:32;4.80;;;3.35;;
20397;SDS011;10358;49.590;11.030;2022-09-30T12:49:21;5.90;;;3.37;;
20397;SDS011;10358;49.590;11.030;2022-09-30T12:51:50;5.53;;;3.10;;
20397;SDS011;10358;49.590;11.030;2022-09-30T12:56:59;5.78;;;3.53;;
20397;SDS011;10358;49.590;11.030;2022-09-30T12:59:38;8.87;;;3.77;;
20397;SDS011;10358;49.590;11.030;2022-09-30T13:02:22;10.10;;;4.13;;
20397;SDS011;10358;49.590;11.030;2022-09-30T13:10:29;5.95;;;2.97;;
20397;SDS011;10358;49.590;11.030;2022-09-30T13:15:41;7.60;;;3.42;;
20397;SDS011;10358;49.590;11.030;2022-09-30T13:32:29;7.05;;;3.20;;
20397;SDS011;10358;49.590;11.030;2022-09-30T13:34:28;4.95;;;2.92;;
20397;SDS011;10358;49.590;11.030;2022-09-30T13:42:06;6.70;;;3.05;;
20397;SDS011;10358;49.590;11.030;2022-09-30T13:47:18;5.07;;;2.83;;
20397;SDS011;10358;49.590;11.030;2022-09-30T13:52:25;6.20;;;3.80;;
20397;SDS011;10358;49.590;11.030;2022-09-30T13:54:57;8.70;;;3.40;;
20397;SDS011;10358;49.590;11.030;2022-09-30T13:57:31;5.72;;;3.70;;
20397;SDS011;10358;49.590;11.030;2022-09-30T14:00:13;5.60;;;4.20;;
20397;SDS011;10358;49.590;11.030;2022-09-30T14:05:49;6.00;;;3.00;;
20397;SDS011;10358;49.590;11.030;2022-09-30T14:11:25;6.75;;;3.40;;
20397;SDS011;10358;49.590;11.030;2022-09-30T14:19:42;9.65;;;3.97;;
20397;SDS011;10358;49.590;11.030;2022-09-30T14:22:25;6.18;;;2.92;;
20397;SDS011;10358;49.590;11.030;2022-09-30T14:24:53;5.85;;;3.42;;
20397;SDS011;10358;49.590;11.030;2022-09-30T14:30:24;4.75;;;3.03;;
20397;SDS011;10358;49.590;11.030;2022-09-30T14:35:19;3.78;;;2.67;;
20397;SDS011;10358;49.590;11.030;2022-09-30T14:38:00;5.30;;;2.80;;
20397;SDS011;10358;49.590;11.030;2022-09-30T14:40:32;7.82;;;2.50;;
20397;SDS011;10358;49.590;11.030;2022-09-30T14:43:00;6.30;;;2.70;;
20397;SDS011;10358;49.590;11.030;2022-09-30T14:45:30;4.88;;;2.90;;
20397;SDS011;10358;49.590;11.030;2022-09-30T14:47:59;4.20;;;2.50;;
20397;SDS011;10358;49.590;11.030;2022-09-30T14:50:35;3.85;;;2.20;;
20397;SDS011;10358;49.590;11.030;2022-09-30T14:55:56;4.55;;;2.53;;
20397;SDS011;10358;49.590;11.030;2022-09-30T14:58:27;7.50;;;2.60;;
20397;SDS011;10358;49.590;11.030;2022-09-30T15:01:02;4.53;;;2.30;;
20397;SDS011;10358;49.590;11.030;2022-09-30T15:03:35;4.05;;;2.50;;
20397;SDS011;10358;49.590;11.030;2022-09-30T15:06:04;2.90;;;2.30;;
20397;SDS011;10358;49.590;11.030;2022-09-30T15:08:40;4.97;;;2.65;;
20397;SDS011;10358;49.590;11.030;2022-09-30T15:11:05;6.95;;;2.78;;
20397;SDS011;10358;49.590;11.030;2022-09-30T15:13:31;5.13;;;3.47;;
20397;SDS011;10358;49.590;11.030;2022-09-30T15:15:58;5.55;;;2.85;;
20397;SDS011;10358;49.590;11.030;2022-09-30T15:21:14;4.00;;;2.30;;
20397;SDS011;10358;49.590;11.030;2022-09-30T15:23:41;4.68;;;2.10;;
20397;SDS011;10358;49.590;11.030;2022-09-30T15:26:09;5.75;;;2.22;;
20397;SDS011;10358;49.590;11.030;2022-09-30T15:28:36;3.88;;;2.00;;
20397;SDS011;10358;49.590;11.030;2022-09-30T15:31:03;9.30;;;4.82;;
20397;SDS011;10358;49.590;11.030;2022-09-30T15:33:30;9.25;;;3.60;;
20397;SDS011;10358;49.590;11.030;2022-09-30T15:36:00;9.55;;;3.55;;
20397;SDS011;10358;49.590;11.030;2022-09-30T15:38:28;5.40;;;2.20;;
20397;SDS011;10358;49.590;11.030;2022-09-30T15:40:59;4.95;;;1.92;;
20397;SDS011;10358;49.590;11.030;2022-09-30T15:43:35;5.35;;;1.88;;
20397;SDS011;10358;49.590;11.030;2022-09-30T15:46:15;3.90;;;1.85;;
20397;SDS011;10358;49.590;11.030;2022-09-30T15:48:52;5.10;;;4.07;;
20397;SDS011;10358;49.590;11.030;2022-09-30T15:51:29;4.47;;;1.90;;
20397;SDS011;10358;49.590;11.030;2022-09-30T15:53:58;2.88;;;1.50;;
20397;SDS011;10358;49.590;11.030;2022-09-30T15:56:44;2.53;;;1.40;;
20397;SDS011;10358;49.590;11.030;2022-09-30T15:59:11;2.13;;;1.23;;
20397;SDS011;10358;49.590;11.030;2022-09-30T16:01:39;2.63;;;1.40;;
20397;SDS011;10358;49.590;11.030;2022-09-30T16:04:11;2.47;;;1.40;;
20397;SDS011;10358;49.590;11.030;2022-09-30T16:09:07;3.55;;;1.50;;
20397;SDS011;10358;49.590;11.030;2022-09-30T16:11:42;2.63;;;1.30;;
20397;SDS011;10358;49.590;11.030;2022-09-30T16:14:27;5.53;;;3.50;;
20397;SDS011;10358;49.590;11.030;2022-09-30T16:16:56;7.32;;;2.10;;
20397;SDS011;10358;49.590;11.030;2022-09-30T16:19:23;4.28;;;1.52;;
20397;SDS011;10358;49.590;11.030;2022-09-30T16:21:51;4.28;;;1.50;;
20397;SDS011;10358;49.590;11.030;2022-09-30T16:26:47;6.28;;;1.40;;
20397;SDS011;10358;49.590;11.030;2022-09-30T16:29:13;2.97;;;1.52;;
20397;SDS011;10358;49.590;11.030;2022-09-30T16:31:40;2.25;;;1.42;;
20397;SDS011;10358;49.590;11.030;2022-09-30T16:34:12;2.40;;;1.20;;
20397;SDS011;10358;49.590;11.030;2022-09-30T16:36:47;4.43;;;1.35;;
20397;SDS011;10358;49.590;11.030;2022-09-30T16:39:14;2.72;;;1.45;;
20397;SDS011;10358;49.590;11.030;2022-09-30T16:41:40;7.10;;;1.60;;
20397;SDS011;10358;49.590;11.030;2022-09-30T16:44:07;3.88;;;1.52;;
20397;SDS011;10358;49.590;11.030;2022-09-30T16:46:32;4.20;;;1.42;;
20397;SDS011;10358;49.590;11.030;2022-09-30T16:48:59;2.85;;;1.60;;
20397;SDS011;10358;49.590;11.030;2022-09-30T16:51:34;4.10;;;1.40;;
20397;SDS011;10358;49.590;11.030;2022-09-30T16:54:00;3.45;;;1.50;;
20397;SDS011;10358;49.590;11.030;2022-09-30T16:56:25;3.30;;;1.50;;
20397;SDS011;10358;49.590;11.030;2022-09-30T17:02:29;3.80;;;1.55;;
20397;SDS011;10358;49.590;11.030;2022-09-30T17:04:55;6.32;;;2.72;;
20397;SDS011;10358;49.590;11.030;2022-09-30T17:07:20;7.28;;;2.70;;
20397;SDS011;10358;49.590;11.030;2022-09-30T17:09:46;6.43;;;2.40;;
20397;SDS011;10358;49.590;11.030;2022-09-30T17:12:13;10.23;;;3.35;;
20397;SDS011;10358;49.590;11.030;2022-09-30T17:14:52;7.32;;;2.58;;
20397;SDS011;10358;49.590;11.030;2022-09-30T17:17:20;4.53;;;2.88;;
20397;SDS011;10358;49.590;11.030;2022-09-30T17:19:46;4.80;;;1.95;;
20397;SDS011;10358;49.590;11.030;2022-09-30T17:22:19;3.72;;;1.80;;
20397;SDS011;10358;49.590;11.030;2022-09-30T17:24:48;10.85;;;1.80;;
20397;SDS011;10358;49.590;11.030;2022-09-30T17:27:14;4.30;;;2.00;;
20397;SDS011;10358;49.590;11.030;2022-09-30T17:29:39;3.95;;;1.80;;
20397;SDS011;10358;49.590;11.030;2022-09-30T17:32:08;5.55;;;2.15;;
20397;SDS011;10358;49.590;11.030;2022-09-30T17:34:34;4.10;;;2.33;;
20397;SDS011;10358;49.590;11.030;2022-09-30T17:36:59;9.77;;;2.50;;
20397;SDS011;10358;49.590;11.030;2022-09-30T17:39:25;4.50;;;2.17;;
20397;SDS011;10358;49.590;11.030;2022-09-30T17:41:51;7.63;;;2.50;;
20397;SDS011;10358;49.590;11.030;2022-09-30T17:44:36;6.67;;;2.83;;
20397;SDS011;10358;49.590;11.030;2022-09-30T17:47:03;5.60;;;2.87;;
20397;SDS011;10358;49.590;11.030;2022-09-30T17:49:34;8.30;;;2.80;;
20397;SDS011;10358;49.590;11.030;2022-09-30T17:52:01;11.70;;;2.90;;
20397;SDS011;10358;49.590;11.030;2022-09-30T17:54:27;5.83;;;2.90;;
20397;SDS011;10358;49.590;11.030;2022-09-30T17:56:54;5.23;;;2.50;;
20397;SDS011;10358;49.590;11.030;2022-09-30T17:59:21;4.23;;;2.30;;
20397;SDS011;10358;49.590;11.030;2022-09-30T18:01:50;3.50;;;2.27;;
20397;SDS011;10358;49.590;11.030;2022-09-30T18:04:16;4.00;;;2.17;;
20397;SDS011;10358;49.590;11.030;2022-09-30T18:06:47;4.83;;;1.80;;
20397;SDS011;10358;49.590;11.030;2022-09-30T18:09:12;7.53;;;2.00;;
20397;SDS011;10358;49.590;11.030;2022-09-30T18:11:39;4.90;;;2.70;;
20397;SDS011;10358;49.590;11.030;2022-09-30T18:14:04;9.10;;;4.60;;
20397;SDS011;10358;49.590;11.030;2022-09-30T18:16:30;7.37;;;4.20;;